createdAt,value
2023-05-10T00:00:23.600Z,68.38
2023-05-10T00:02:50.947Z,68.58
2023-05-10T00:05:17.993Z,68.28
2023-05-10T00:07:45.137Z,68.04
2023-05-10T00:10:12.811Z,68.06
2023-05-10T00:12:39.853Z,68.41
2023-05-10T00:15:07.700Z,68.15
2023-05-10T00:17:34.576Z,68.19
2023-05-10T00:20:01.577Z,67.81
2023-05-10T00:22:28.522Z,68.64
2023-05-10T00:24:55.387Z,68.39
2023-05-10T00:27:22.245Z,69.11
2023-05-10T00:29:49.118Z,68.57
2023-05-10T00:32:16.056Z,69.15
2023-05-10T00:34:43.060Z,69.07
2023-05-10T00:37:09.912Z,68.90
2023-05-10T00:39:36.744Z,69.51
2023-05-10T00:42:03.680Z,69.90
2023-05-10T00:44:30.709Z,69.89
2023-05-10T00:46:58.209Z,70.39
2023-05-10T00:49:25.057Z,69.90
2023-05-10T00:51:52.322Z,70.00
2023-05-10T00:54:19.263Z,70.24
2023-05-10T00:56:46.097Z,70.51
2023-05-10T00:59:12.960Z,70.51
2023-05-10T01:01:39.928Z,70.13
2023-05-10T01:04:06.884Z,69.69
2023-05-10T01:06:33.901Z,70.54
2023-05-10T01:09:00.837Z,70.63
2023-05-10T01:11:27.983Z,71.20
2023-05-10T01:13:58.265Z,71.64
2023-05-10T01:16:27.365Z,71.26
2023-05-10T01:18:54.445Z,70.94
2023-05-10T01:21:42.125Z,71.39
2023-05-10T01:24:51.216Z,71.34
2023-05-10T01:27:59.391Z,71.27
2023-05-10T01:31:01.381Z,71.69
2023-05-10T01:33:36.028Z,71.60
2023-05-10T01:36:28.082Z,71.45
2023-05-10T01:39:15.234Z,71.68
2023-05-10T01:41:53.696Z,71.13
2023-05-10T01:44:41.503Z,71.61
2023-05-10T01:47:18.211Z,71.49
2023-05-10T01:49:50.654Z,71.58
2023-05-10T01:52:20.962Z,71.97
2023-05-10T01:54:56.878Z,72.06
2023-05-10T01:57:28.852Z,71.84
2023-05-10T01:59:57.382Z,72.58
2023-05-10T02:02:26.917Z,72.64
2023-05-10T02:04:55.476Z,73.02
2023-05-10T02:07:24.530Z,73.34
2023-05-10T02:09:52.072Z,73.43
2023-05-10T02:12:20.082Z,73.40
2023-05-10T02:14:48.152Z,73.35
2023-05-10T02:17:15.904Z,73.59
2023-05-10T02:19:44.323Z,73.30
2023-05-10T02:22:12.922Z,73.34
2023-05-10T02:24:41.486Z,73.06
2023-05-10T02:27:10.034Z,73.62
2023-05-10T02:29:38.181Z,73.24
2023-05-10T02:32:05.792Z,73.14
2023-05-10T02:34:33.514Z,73.37
2023-05-10T02:37:02.829Z,73.27
2023-05-10T02:39:32.876Z,73.26
2023-05-10T02:42:00.890Z,73.93
2023-05-10T02:44:30.539Z,74.27
2023-05-10T02:46:57.311Z,73.95
2023-05-10T02:49:24.243Z,74.21
2023-05-10T02:51:57.631Z,74.77
2023-05-10T02:54:30.621Z,74.97
2023-05-10T02:57:05.044Z,75.52
2023-05-10T02:59:32.267Z,75.09
2023-05-10T03:02:00.160Z,75.35
2023-05-10T03:04:27.326Z,75.65
2023-05-10T03:06:54.205Z,76.11
2023-05-10T03:09:21.127Z,76.24
2023-05-10T03:12:05.331Z,76.64
2023-05-10T03:14:54.537Z,76.46
2023-05-10T03:17:51.008Z,76.85
2023-05-10T03:20:25.746Z,77.25
2023-05-10T03:23:18.732Z,77.50
2023-05-10T03:25:49.177Z,77.06
2023-05-10T03:28:17.236Z,77.07
2023-05-10T03:30:45.182Z,76.98
2023-05-10T03:33:12.126Z,76.91
2023-05-10T03:35:38.900Z,77.19
2023-05-10T03:38:05.867Z,76.92
2023-05-10T03:40:32.658Z,76.50
2023-05-10T03:43:00.188Z,76.22
2023-05-10T03:45:27.545Z,76.79
2023-05-10T03:47:54.486Z,77.14
2023-05-10T03:50:21.959Z,77.37
2023-05-10T03:52:49.054Z,77.55
2023-05-10T03:55:16.397Z,77.64
2023-05-10T03:57:43.435Z,78.16
2023-05-10T04:00:11.378Z,77.07
2023-05-10T04:02:38.642Z,77.64
2023-05-10T04:05:06.070Z,78.01
2023-05-10T04:07:32.982Z,77.49
2023-05-10T04:09:59.815Z,77.75
2023-05-10T04:12:29.845Z,77.43
2023-05-10T04:14:56.784Z,77.82
2023-05-10T04:17:23.664Z,77.58
2023-05-10T04:19:50.449Z,77.30
2023-05-10T04:22:17.311Z,77.35
2023-05-10T04:24:44.164Z,77.23
2023-05-10T04:27:11.081Z,77.11
2023-05-10T04:29:38.150Z,77.80
2023-05-10T04:32:05.392Z,77.85
2023-05-10T04:34:32.244Z,77.61
2023-05-10T04:36:59.215Z,78.24
2023-05-10T04:39:26.153Z,78.43
2023-05-10T04:41:55.918Z,79.01
2023-05-10T04:44:23.111Z,79.19
2023-05-10T04:46:50.028Z,78.64
2023-05-10T04:49:16.878Z,78.30
2023-05-10T04:51:44.077Z,78.03
2023-05-10T04:54:11.115Z,78.40
2023-05-10T04:56:38.032Z,78.38
2023-05-10T04:59:05.547Z,78.28
2023-05-10T05:01:32.542Z,78.20
2023-05-10T05:03:59.998Z,78.09
2023-05-10T05:06:30.044Z,77.63
2023-05-10T05:08:57.037Z,77.96
2023-05-10T05:11:29.660Z,77.53
2023-05-10T05:13:56.627Z,77.43
2023-05-10T05:16:23.567Z,77.32
2023-05-10T05:18:50.506Z,76.20
2023-05-10T05:21:18.951Z,75.97
2023-05-10T05:23:54.931Z,76.66
2023-05-10T05:26:24.927Z,76.59
2023-05-10T05:28:51.872Z,76.58
2023-05-10T05:31:18.761Z,76.22
2023-05-10T05:33:45.832Z,75.12
2023-05-10T05:36:12.768Z,73.76
2023-05-10T05:38:39.699Z,73.68
2023-05-10T05:41:06.707Z,74.62
2023-05-10T05:43:34.562Z,74.45
2023-05-10T05:46:02.525Z,74.35
2023-05-10T05:48:31.974Z,74.35
2023-05-10T05:50:59.203Z,74.44
2023-05-10T05:53:26.471Z,74.14
2023-05-10T05:55:54.261Z,74.19
2023-05-10T05:58:21.854Z,74.81
2023-05-10T06:00:49.083Z,75.04
2023-05-10T06:03:16.159Z,76.17
2023-05-10T06:05:43.177Z,75.40
2023-05-10T06:08:10.133Z,75.05
2023-05-10T06:10:37.680Z,74.11
2023-05-10T06:13:04.975Z,73.81
2023-05-10T06:15:31.847Z,74.15
2023-05-10T06:17:58.822Z,74.12
2023-05-10T06:20:26.133Z,74.01
2023-05-10T06:22:53.024Z,73.83
2023-05-10T06:25:20.040Z,72.95
2023-05-10T06:27:50.494Z,72.51
2023-05-10T06:30:19.806Z,73.20
2023-05-10T06:32:46.753Z,73.25
2023-05-10T06:35:13.817Z,72.73
2023-05-10T06:37:40.873Z,72.95
2023-05-10T06:40:08.462Z,73.15
2023-05-10T06:42:36.483Z,71.98
2023-05-10T06:45:03.686Z,71.81
2023-05-10T06:47:30.604Z,71.77
2023-05-10T06:49:57.487Z,71.65
2023-05-10T06:52:24.494Z,71.32
2023-05-10T06:54:51.422Z,71.39
2023-05-10T06:57:30.677Z,72.01
2023-05-10T06:59:59.559Z,71.64
2023-05-10T07:02:26.580Z,71.47
2023-05-10T07:04:53.708Z,71.19
2023-05-10T07:07:20.626Z,71.18
2023-05-10T07:09:47.758Z,72.13
2023-05-10T07:12:15.874Z,70.96
2023-05-10T07:14:43.492Z,71.40
2023-05-10T07:17:10.872Z,70.76
2023-05-10T07:19:37.948Z,71.48
2023-05-10T07:22:05.046Z,72.33
2023-05-10T07:24:33.509Z,71.15
2023-05-10T07:27:00.712Z,71.20
2023-05-10T07:29:27.784Z,70.61
2023-05-10T07:31:56.389Z,70.01
2023-05-10T07:34:24.889Z,70.38
2023-05-10T07:36:51.721Z,69.92
2023-05-10T07:39:26.707Z,69.86
2023-05-10T07:41:56.053Z,69.68
2023-05-10T07:44:23.293Z,69.80
2023-05-10T07:46:50.528Z,68.73
2023-05-10T07:49:17.593Z,68.35
2023-05-10T07:51:44.473Z,68.18
2023-05-10T07:54:11.420Z,68.06
2023-05-10T07:56:38.435Z,67.91
2023-05-10T07:59:05.572Z,67.07
2023-05-10T08:01:33.098Z,66.70
2023-05-10T08:04:00.170Z,65.21
2023-05-10T08:06:27.318Z,62.57
2023-05-10T08:08:54.266Z,62.61
2023-05-10T08:11:21.819Z,61.48
2023-05-10T08:13:50.559Z,58.66
2023-05-10T08:16:18.330Z,59.31
2023-05-10T08:18:47.111Z,60.31
2023-05-10T08:21:15.063Z,60.36
2023-05-10T08:23:42.104Z,61.69
2023-05-10T08:26:08.972Z,61.64
2023-05-10T08:28:35.882Z,60.48
2023-05-10T08:31:02.715Z,59.21
2023-05-10T08:33:29.749Z,59.39
2023-05-10T08:35:56.550Z,59.60
2023-05-10T08:38:23.403Z,59.69
2023-05-10T08:40:50.912Z,60.16
2023-05-10T08:43:17.760Z,59.43
2023-05-10T08:45:46.170Z,60.29
2023-05-10T08:48:13.294Z,60.44
2023-05-10T08:50:42.122Z,60.68
2023-05-10T08:53:14.618Z,60.62
2023-05-10T08:55:42.003Z,60.75
2023-05-10T08:58:09.564Z,60.17
2023-05-10T09:00:37.463Z,59.82
2023-05-10T09:03:05.675Z,59.80
2023-05-10T09:05:32.686Z,60.13
2023-05-10T09:07:59.665Z,60.69
2023-05-10T09:10:27.268Z,60.79
2023-05-10T09:12:54.950Z,59.80
2023-05-10T09:15:21.962Z,59.71
2023-05-10T09:17:50.608Z,59.42
2023-05-10T09:20:17.676Z,59.57
2023-05-10T09:22:45.069Z,58.55
2023-05-10T09:25:16.097Z,58.92
2023-05-10T09:27:47.693Z,59.34
2023-05-10T09:30:24.168Z,59.28
2023-05-10T09:32:51.362Z,58.67
2023-05-10T09:35:21.015Z,58.83
2023-05-10T09:37:50.237Z,58.34
2023-05-10T09:40:19.290Z,56.88
2023-05-10T09:42:57.704Z,56.25
2023-05-10T09:45:26.552Z,56.21
2023-05-10T09:47:53.794Z,55.05
2023-05-10T09:50:22.003Z,55.79
2023-05-10T09:53:02.203Z,53.90
2023-05-10T09:55:42.554Z,52.27
2023-05-10T09:58:09.476Z,52.62
2023-05-10T10:00:41.859Z,54.21
2023-05-10T10:03:15.123Z,52.47
2023-05-10T10:05:43.657Z,49.17
2023-05-10T10:08:11.434Z,50.58
2023-05-10T10:10:38.818Z,52.82
2023-05-10T10:13:05.775Z,53.57
2023-05-10T10:15:34.514Z,53.42
2023-05-10T10:18:01.938Z,54.36
2023-05-10T10:20:29.333Z,54.40
2023-05-10T10:22:56.296Z,54.46
2023-05-10T10:25:24.022Z,55.19
2023-05-10T10:27:53.611Z,56.36
2023-05-10T10:30:48.270Z,56.00
2023-05-10T10:33:36.386Z,55.01
2023-05-10T10:36:05.188Z,54.32
2023-05-10T10:39:01.865Z,54.93
2023-05-10T10:41:34.588Z,54.64
2023-05-10T10:44:27.432Z,53.13
2023-05-10T10:47:12.848Z,53.60
2023-05-10T10:49:45.228Z,53.03
2023-05-10T10:52:26.658Z,53.11
2023-05-10T10:55:00.650Z,52.97
2023-05-10T10:57:28.303Z,53.82
2023-05-10T11:00:22.540Z,53.75
2023-05-10T11:02:59.044Z,52.74
2023-05-10T11:05:29.920Z,52.61
2023-05-10T11:07:58.783Z,52.73
2023-05-10T11:10:29.251Z,52.93
2023-05-10T11:13:11.572Z,53.16
2023-05-10T11:15:41.781Z,53.95
2023-05-10T11:18:31.467Z,53.75
2023-05-10T11:21:02.803Z,53.14
2023-05-10T11:23:33.188Z,53.17
2023-05-10T11:26:01.768Z,54.06
2023-05-10T11:28:28.772Z,54.00
2023-05-10T11:30:55.999Z,53.86
2023-05-10T11:33:22.886Z,52.19
2023-05-10T11:35:49.784Z,51.31
2023-05-10T11:38:16.721Z,51.67
2023-05-10T11:40:44.464Z,50.64
2023-05-10T11:43:11.499Z,52.09
2023-05-10T11:45:38.487Z,51.29
2023-05-10T11:48:05.749Z,51.04
2023-05-10T11:50:32.663Z,51.94
2023-05-10T11:52:59.550Z,51.38
2023-05-10T11:55:26.409Z,49.34
2023-05-10T11:58:01.120Z,48.61
2023-05-10T12:00:28.319Z,51.24
2023-05-10T12:02:55.489Z,52.92
2023-05-10T12:05:23.125Z,54.18
2023-05-10T12:07:49.850Z,56.17
2023-05-10T12:10:16.839Z,56.45
2023-05-10T12:12:45.860Z,56.67
2023-05-10T12:15:23.938Z,56.79
2023-05-10T12:17:51.594Z,58.05
2023-05-10T12:20:21.296Z,58.14
2023-05-10T12:22:52.036Z,58.53
2023-05-10T12:25:21.043Z,58.52
2023-05-10T12:27:53.503Z,58.32
2023-05-10T12:30:31.163Z,58.23
2023-05-10T12:33:12.124Z,58.06
2023-05-10T12:35:53.337Z,57.92
2023-05-10T12:38:26.704Z,58.41
2023-05-10T12:40:53.601Z,57.77
2023-05-10T12:43:20.509Z,58.27
2023-05-10T12:45:48.707Z,58.44
2023-05-10T12:48:16.351Z,58.48
2023-05-10T12:50:43.223Z,57.84
2023-05-10T12:53:10.051Z,57.63
2023-05-10T12:55:36.805Z,57.96
2023-05-10T12:58:03.535Z,56.85
2023-05-10T13:00:30.351Z,56.02
2023-05-10T13:02:57.276Z,56.46
2023-05-10T13:05:24.159Z,56.06
2023-05-10T13:07:51.117Z,55.18
2023-05-10T13:10:19.908Z,56.12
2023-05-10T13:12:46.871Z,56.92
2023-05-10T13:15:13.706Z,57.76
2023-05-10T13:17:40.539Z,57.95
2023-05-10T13:20:07.986Z,57.75
2023-05-10T13:22:40.383Z,56.73
2023-05-10T13:25:08.156Z,55.93
2023-05-10T13:27:34.922Z,55.98
2023-05-10T13:30:02.308Z,57.21
2023-05-10T13:32:29.203Z,58.96
2023-05-10T13:34:56.821Z,60.06
2023-05-10T13:37:23.674Z,60.74
2023-05-10T13:39:50.476Z,60.52
2023-05-10T13:42:17.353Z,61.28
2023-05-10T13:44:44.126Z,61.33
2023-05-10T13:47:10.983Z,60.88
2023-05-10T13:49:37.917Z,61.46
2023-05-10T13:52:05.147Z,61.67
2023-05-10T13:54:32.000Z,62.02
2023-05-10T13:56:58.946Z,61.47
2023-05-10T13:59:28.495Z,61.36
2023-05-10T14:01:55.487Z,62.20
2023-05-10T14:04:22.386Z,62.78
2023-05-10T14:06:49.291Z,62.29
2023-05-10T14:09:16.144Z,62.62
2023-05-10T14:11:43.283Z,63.41
2023-05-10T14:14:10.846Z,63.26
2023-05-10T14:16:37.729Z,63.39
2023-05-10T14:19:04.849Z,63.51
2023-05-10T14:21:31.922Z,63.89
2023-05-10T14:23:58.817Z,64.05
2023-05-10T14:26:25.806Z,64.09
2023-05-10T14:28:52.787Z,64.89
2023-05-10T14:31:19.815Z,65.00
2023-05-10T14:33:47.113Z,65.13
2023-05-10T14:36:14.589Z,65.61
2023-05-10T14:38:41.960Z,65.91
2023-05-10T14:41:10.639Z,66.39
2023-05-10T14:43:38.683Z,65.41
2023-05-10T14:46:05.493Z,66.71
2023-05-10T14:48:32.565Z,66.94
2023-05-10T14:50:59.646Z,67.15
2023-05-10T14:53:26.476Z,68.23
2023-05-10T14:55:53.532Z,68.95
2023-05-10T14:58:20.778Z,68.30
2023-05-10T15:00:47.694Z,68.50
2023-05-10T15:03:15.761Z,68.34
2023-05-10T15:05:43.460Z,67.98
2023-05-10T15:08:13.104Z,68.33
2023-05-10T15:10:40.733Z,67.93
2023-05-10T15:13:07.671Z,69.12
2023-05-10T15:15:34.555Z,68.88
2023-05-10T15:18:03.499Z,69.71
2023-05-10T15:20:33.557Z,70.07
2023-05-10T15:23:00.506Z,70.24
2023-05-10T15:25:27.734Z,70.56
2023-05-10T15:27:57.459Z,70.50
2023-05-10T15:30:27.877Z,70.18
2023-05-10T15:32:54.835Z,70.73
2023-05-10T15:35:22.026Z,70.88
2023-05-10T15:37:51.167Z,70.87
2023-05-10T15:40:21.309Z,70.82
2023-05-10T15:42:48.238Z,71.04
2023-05-10T15:45:18.797Z,71.77
2023-05-10T15:47:46.265Z,71.67
2023-05-10T15:50:13.368Z,71.92
2023-05-10T15:52:40.366Z,72.18
2023-05-10T15:55:07.974Z,72.67
2023-05-10T15:57:37.477Z,73.72
2023-05-10T16:00:04.887Z,74.25
2023-05-10T16:02:32.702Z,74.10
2023-05-10T16:04:59.687Z,74.49
2023-05-10T16:07:26.702Z,74.80
2023-05-10T16:09:53.669Z,75.54
2023-05-10T16:12:20.803Z,75.71
2023-05-10T16:14:48.710Z,75.87
2023-05-10T16:17:19.269Z,76.92
2023-05-10T16:19:55.562Z,78.73
2023-05-10T16:22:34.892Z,78.68
2023-05-10T16:25:02.170Z,79.44
2023-05-10T16:27:29.029Z,79.45
2023-05-10T16:29:56.595Z,79.11
2023-05-10T16:32:23.681Z,79.46
2023-05-10T16:34:50.656Z,79.19
2023-05-10T16:37:17.655Z,80.76
2023-05-10T16:39:44.920Z,81.30
2023-05-10T16:42:11.802Z,81.55
2023-05-10T16:44:38.963Z,81.67
2023-05-10T16:47:06.097Z,83.08
2023-05-10T16:49:33.380Z,84.47
2023-05-10T16:52:03.599Z,84.40
2023-05-10T16:54:30.544Z,84.56
2023-05-10T16:56:57.524Z,86.42
2023-05-10T16:59:27.320Z,87.19
2023-05-10T17:01:55.084Z,87.30
2023-05-10T17:04:22.060Z,86.99
2023-05-10T17:06:49.256Z,86.98
2023-05-10T17:09:16.318Z,87.18
2023-05-10T17:11:43.369Z,86.71
2023-05-10T17:14:10.321Z,87.01
2023-05-10T17:16:37.427Z,87.89
2023-05-10T17:19:04.367Z,88.19
2023-05-10T17:21:31.347Z,88.09
2023-05-10T17:23:58.529Z,88.74
2023-05-10T17:26:28.745Z,88.01
2023-05-10T17:28:56.077Z,87.99
2023-05-10T17:31:26.528Z,88.72
2023-05-10T17:33:53.848Z,90.59
2023-05-10T17:36:23.479Z,90.73
2023-05-10T17:38:50.520Z,90.84
2023-05-10T17:41:17.954Z,91.07
2023-05-10T17:43:45.077Z,89.95
2023-05-10T17:46:12.070Z,89.28
2023-05-10T17:48:39.418Z,88.47
2023-05-10T17:51:06.645Z,89.44
2023-05-10T17:53:34.613Z,89.82
2023-05-10T17:56:01.815Z,89.84
2023-05-10T17:58:29.148Z,89.67
2023-05-10T18:00:56.550Z,90.63
2023-05-10T18:03:23.961Z,92.30
2023-05-10T18:05:54.131Z,94.14
2023-05-10T18:08:21.467Z,93.33
2023-05-10T18:10:51.663Z,93.35
2023-05-10T18:13:18.881Z,93.51
2023-05-10T18:15:46.095Z,94.42
2023-05-10T18:18:14.684Z,96.07
2023-05-10T18:20:41.684Z,96.30
2023-05-10T18:23:08.740Z,96.63
2023-05-10T18:25:36.020Z,97.37
2023-05-10T18:28:03.134Z,96.99
2023-05-10T18:30:30.804Z,97.33
2023-05-10T18:32:58.317Z,97.19
2023-05-10T18:35:25.950Z,97.26
2023-05-10T18:37:53.007Z,96.31
2023-05-10T18:40:20.456Z,96.59
2023-05-10T18:42:47.517Z,95.84
2023-05-10T18:45:14.985Z,95.30
2023-05-10T18:47:42.491Z,94.69
2023-05-10T18:50:12.115Z,94.61
2023-05-10T18:52:41.883Z,94.20
2023-05-10T18:55:09.801Z,94.05
2023-05-10T18:57:36.790Z,94.26
2023-05-10T19:00:04.140Z,93.74
2023-05-10T19:02:31.316Z,93.07
2023-05-10T19:04:58.419Z,92.96
2023-05-10T19:07:31.613Z,92.61
2023-05-10T19:09:58.809Z,93.73
2023-05-10T19:12:31.697Z,93.55
2023-05-10T19:14:59.109Z,92.98
2023-05-10T19:17:26.698Z,92.71
2023-05-10T19:19:56.171Z,92.28
2023-05-10T19:25:00.235Z,91.97
2023-05-10T19:27:27.690Z,91.70
2023-05-10T19:29:56.685Z,91.14
2023-05-10T19:32:25.755Z,90.81
2023-05-10T19:35:00.184Z,91.29
2023-05-10T19:37:31.346Z,91.06
2023-05-10T19:40:01.686Z,90.66
2023-05-10T19:42:30.082Z,90.86
2023-05-10T19:44:59.672Z,91.28
2023-05-10T19:47:27.490Z,91.67
2023-05-10T19:49:54.902Z,92.60
2023-05-10T19:52:27.141Z,92.75
2023-05-10T19:54:54.364Z,94.25
2023-05-10T19:57:22.018Z,95.82
2023-05-10T19:59:51.653Z,95.82
2023-05-10T20:02:21.639Z,94.63
2023-05-10T20:04:50.954Z,94.13
2023-05-10T20:07:21.334Z,92.47
2023-05-10T20:09:48.677Z,91.99
2023-05-10T20:12:16.025Z,91.53
2023-05-10T20:14:43.370Z,91.67
2023-05-10T20:17:12.429Z,92.63
2023-05-10T20:19:39.697Z,92.24
2023-05-10T20:22:09.055Z,92.91
2023-05-10T20:24:37.272Z,93.69
2023-05-10T20:27:06.198Z,95.01
2023-05-10T20:29:33.751Z,95.60
2023-05-10T20:32:01.220Z,95.45
2023-05-10T20:34:28.631Z,96.00
2023-05-10T20:36:55.806Z,96.83
2023-05-10T20:39:22.898Z,97.13
2023-05-10T20:41:50.023Z,97.00
2023-05-10T20:44:17.385Z,96.71
2023-05-10T20:46:44.494Z,96.41
2023-05-10T20:49:11.704Z,96.75
2023-05-10T20:51:42.777Z,96.71
2023-05-10T20:54:10.654Z,96.59
2023-05-10T20:56:39.407Z,96.93
2023-05-10T20:59:09.831Z,96.04
2023-05-10T21:01:39.742Z,95.79
2023-05-10T21:04:09.026Z,96.27
2023-05-10T21:06:36.614Z,96.73
2023-05-10T21:09:04.125Z,96.16
2023-05-10T21:11:35.362Z,95.93
2023-05-10T21:14:03.079Z,95.04
2023-05-10T21:16:30.228Z,95.07
2023-05-10T21:18:57.317Z,94.53
2023-05-10T21:21:24.498Z,93.44
2023-05-10T21:23:51.465Z,93.77
2023-05-10T21:26:18.531Z,93.88
2023-05-10T21:28:46.276Z,93.91
2023-05-10T21:31:13.243Z,94.26
2023-05-10T21:33:40.876Z,94.48
2023-05-10T21:36:07.851Z,93.68
2023-05-10T21:38:35.028Z,93.85
2023-05-10T21:41:02.053Z,93.99
2023-05-10T21:43:29.038Z,94.28
2023-05-10T21:45:56.189Z,94.43
2023-05-10T21:48:23.258Z,94.67
2023-05-10T21:50:50.105Z,95.10
2023-05-10T21:53:17.019Z,94.38
2023-05-10T21:55:44.114Z,94.74
2023-05-10T21:58:11.030Z,92.80
2023-05-10T22:00:37.911Z,91.95
2023-05-10T22:03:05.081Z,91.78
2023-05-10T22:05:31.922Z,92.53
2023-05-10T22:07:58.806Z,92.58
2023-05-10T22:10:25.779Z,91.79
2023-05-10T22:12:52.662Z,92.98
2023-05-10T22:15:19.583Z,92.46
2023-05-10T22:17:46.677Z,92.74
2023-05-10T22:20:13.669Z,93.45
2023-05-10T22:22:40.515Z,92.91
2023-05-10T22:25:07.882Z,93.00
2023-05-10T22:27:35.107Z,93.51
2023-05-10T22:30:02.368Z,93.25
2023-05-10T22:32:29.461Z,93.08
2023-05-10T22:34:56.385Z,92.73
2023-05-10T22:37:23.385Z,93.27
2023-05-10T22:39:50.387Z,92.89
2023-05-10T22:42:17.320Z,92.31
2023-05-10T22:44:44.140Z,91.67
2023-05-10T22:47:11.187Z,90.46
2023-05-10T22:49:38.243Z,91.18
2023-05-10T22:52:05.128Z,91.12
2023-05-10T22:54:33.698Z,90.56
2023-05-10T22:57:01.875Z,90.60
2023-05-10T22:59:28.919Z,90.81
2023-05-10T23:01:56.117Z,90.74
2023-05-10T23:04:23.048Z,90.95
2023-05-10T23:06:49.914Z,91.51
2023-05-10T23:09:17.137Z,91.87
2023-05-10T23:11:44.166Z,91.52
2023-05-10T23:14:10.988Z,92.33
2023-05-10T23:16:38.181Z,91.47
2023-05-10T23:19:05.227Z,91.02
2023-05-10T23:21:32.361Z,89.95
2023-05-10T23:23:59.362Z,90.47
2023-05-10T23:26:26.313Z,90.62
2023-05-10T23:28:53.150Z,90.02
2023-05-10T23:31:20.132Z,90.21
2023-05-10T23:33:47.066Z,90.04
2023-05-10T23:36:13.905Z,90.67
2023-05-10T23:38:40.821Z,90.59
2023-05-10T23:41:07.678Z,90.50
2023-05-10T23:43:34.645Z,90.19
2023-05-10T23:46:01.987Z,90.47
2023-05-10T23:48:29.001Z,91.28
2023-05-10T23:50:55.910Z,91.51
2023-05-10T23:53:22.831Z,91.87
2023-05-10T23:55:49.683Z,92.30
2023-05-10T23:58:16.605Z,92.51
